Time;durP1;ratioP1;P1;durP2;ratioP2;P2;SDS_P1;SDS_P2;PMS_P1;PMS_P2;Temp;Humidity;BMP_temperature;BMP_pressure;BME280_temperature;BME280_humidity;BME280_pressure;Samples;Min_cycle;Max_cycle;Signal;HPM_P1;HPM_P2
2022/09/29 00:02:00;;;;;;;;;;;;;;;18.92;50.76;99936.66;5067546;28;19920;-57
2022/09/29 00:04:25;;;;;;;;;;;;;;;18.92;50.91;99928.59;5067477;28;19920;-54
2022/09/29 00:06:50;;;;;;;;;;;;;;;18.91;50.54;99934.19;5067597;28;19943;-57
2022/09/29 00:09:15;;;;;;;;;;;;;;;18.90;50.76;99929.78;5067221;28;19912;-56
2022/09/29 00:11:40;;;;;;;;;;;;;;;18.89;50.73;99931.66;5067057;28;19916;-56
2022/09/29 00:14:06;;;;;;;;;;;;;;;18.88;50.65;99935.38;5066297;28;20493;-57
2022/09/29 00:16:31;;;;;;;;;;;;;;;18.88;50.75;99929.16;5067340;28;19940;-57
2022/09/29 00:18:56;;;;;;;;;;;;;;;18.86;50.93;99940.16;5067268;28;19964;-56
2022/09/29 00:21:22;;;;;;;;;;;;;;;18.87;50.74;99935.59;5067207;28;19909;-56
2022/09/29 00:23:47;;;;;;;;;;;;;;;18.85;50.49;99938.44;5066920;28;19916;-56
2022/09/29 00:26:14;;;;;;;;;;;;;;;18.85;50.80;99932.25;5066709;28;19920;-57
2022/09/29 00:28:40;;;;;;;;;;;;;;;18.84;50.73;99939.47;5065542;28;19972;-57
2022/09/29 00:31:06;;;;;;;;;;;;;;;18.84;50.81;99936.78;5066729;28;19976;-56
2022/09/29 00:33:31;;;;;;;;;;;;;;;18.83;50.62;99939.69;5067068;28;19909;-56
2022/09/29 00:36:04;;;;;;;;;;;;;;;18.82;50.45;99941.56;5067096;28;20011;-56
2022/09/29 00:38:30;;;;;;;;;;;;;;;18.83;50.85;99934.31;5067067;28;19931;-55
2022/09/29 00:40:55;;;;;;;;;;;;;;;18.81;50.50;99941.72;5065216;28;19987;-56
2022/09/29 00:43:44;;;;;;;;;;;;;;;18.81;50.71;99936.34;5099107;28;19932;-57
2022/09/29 00:46:09;;;;;;;;;;;;;;;18.79;50.50;99927.63;5099093;28;19909;-52
2022/09/29 00:48:34;;;;;;;;;;;;;;;18.78;50.74;99929.50;5098960;28;19958;-57
2022/09/29 00:50:59;;;;;;;;;;;;;;;18.79;50.55;99924.94;5066626;28;19912;-56
2022/09/29 00:53:24;;;;;;;;;;;;;;;18.78;50.70;99928.66;5065149;28;19974;-56
2022/09/29 00:55:57;;;;;;;;;;;;;;;18.76;50.53;99931.53;5065511;28;19983;-54
2022/09/29 00:58:23;;;;;;;;;;;;;;;18.76;50.53;99926.13;5066768;28;19904;-56
2022/09/29 01:00:48;;;;;;;;;;;;;;;18.75;50.49;99927.16;5066055;28;20012;-56
2022/09/29 01:03:14;;;;;;;;;;;;;;;18.74;50.56;99922.81;5063370;28;19955;-54
2022/09/29 01:05:41;;;;;;;;;;;;;;;18.74;50.47;99922.81;5066245;28;19932;-54
2022/09/29 01:08:11;;;;;;;;;;;;;;;18.72;50.52;99923.00;5065186;28;19915;-56
2022/09/29 01:10:37;;;;;;;;;;;;;;;18.72;50.30;99919.47;5064825;28;19908;-57
2022/09/29 01:13:03;;;;;;;;;;;;;;;18.71;50.46;99920.50;5065420;28;19931;-56
2022/09/29 01:15:28;;;;;;;;;;;;;;;18.70;50.34;99924.22;5066091;28;19908;-57
2022/09/29 01:17:54;;;;;;;;;;;;;;;18.70;50.59;99921.53;5081479;28;19916;-56
2022/09/29 01:20:20;;;;;;;;;;;;;;;18.68;50.63;99923.53;5066156;28;19908;-55
2022/09/29 01:22:52;;;;;;;;;;;;;;;18.67;50.55;99922.72;5066052;28;19939;-55
2022/09/29 01:25:22;;;;;;;;;;;;;;;18.67;50.61;99928.09;5066048;28;19959;-54
2022/09/29 01:27:47;;;;;;;;;;;;;;;18.66;50.41;99928.28;5098079;28;20262;-53
2022/09/29 01:30:24;;;;;;;;;;;;;;;18.65;50.56;99924.78;5065594;28;19935;-56
2022/09/29 01:32:52;;;;;;;;;;;;;;;18.64;50.60;99925.78;5064772;28;19909;-57
2022/09/29 01:35:32;;;;;;;;;;;;;;;18.64;50.64;99933.84;5065731;28;19908;-56
2022/09/29 01:38:12;;;;;;;;;;;;;;;18.63;50.25;99932.19;5045937;28;19909;-56
2022/09/29 01:40:41;;;;;;;;;;;;;;;18.64;50.17;99933.03;5045859;28;19916;-55
2022/09/29 01:43:06;;;;;;;;;;;;;;;18.63;50.60;99925.97;5077607;28;19909;-55
2022/09/29 01:45:32;;;;;;;;;;;;;;;18.62;50.48;99929.69;5045519;28;19916;-57
2022/09/29 01:47:59;;;;;;;;;;;;;;;18.61;50.45;99936.94;5045756;28;19947;-53
2022/09/29 01:50:47;;;;;;;;;;;;;;;18.61;50.20;99936.94;5077521;28;19909;-56
2022/09/29 01:53:14;;;;;;;;;;;;;;;18.59;50.36;99936.28;5052096;28;20458;-55
2022/09/29 01:55:50;;;;;;;;;;;;;;;18.59;50.25;99943.53;5064569;28;19905;-54
2022/09/29 01:58:44;;;;;;;;;;;;;;;18.58;50.40;99944.56;5064078;28;19909;-57
2022/09/29 02:01:10;;;;;;;;;;;;;;;18.56;50.39;99938.50;5059850;28;19960;-56
2022/09/29 02:03:40;;;;;;;;;;;;;;;18.56;50.31;99942.03;5065235;28;19913;-55
2022/09/29 02:06:12;;;;;;;;;;;;;;;18.56;50.20;99946.59;5065216;28;20003;-56
2022/09/29 02:08:38;;;;;;;;;;;;;;;18.55;50.04;99947.63;5097509;28;20007;-56
2022/09/29 02:11:05;;;;;;;;;;;;;;;18.54;50.44;99940.56;5097127;28;19916;-56
2022/09/29 02:13:30;;;;;;;;;;;;;;;18.54;50.34;99940.56;5065231;28;19915;-57
2022/09/29 02:15:56;;;;;;;;;;;;;;;18.52;50.03;99946.16;5063819;28;19944;-56
2022/09/29 02:18:22;;;;;;;;;;;;;;;18.52;50.19;99943.47;5065228;28;19909;-56
2022/09/29 02:20:47;;;;;;;;;;;;;;;18.52;50.35;99937.22;5064681;28;19915;-54
2022/09/29 02:23:13;;;;;;;;;;;;;;;18.51;50.37;99940.94;5064705;28;19913;-53
2022/09/29 02:25:38;;;;;;;;;;;;;;;18.49;50.21;99933.91;5063726;28;19909;-56
2022/09/29 02:28:03;;;;;;;;;;;;;;;18.50;50.09;99937.44;5064865;28;19909;-56
2022/09/29 02:30:28;;;;;;;;;;;;;;;18.48;50.05;99934.94;5064488;28;19915;-54
2022/09/29 02:32:54;;;;;;;;;;;;;;;18.47;50.05;99938.63;5065125;28;19909;-53
2022/09/29 02:35:19;;;;;;;;;;;;;;;18.46;50.20;99934.28;5064878;28;19916;-54
2022/09/29 02:38:00;;;;;;;;;;;;;;;18.47;50.26;99940.50;5078943;28;20430;-54
2022/09/29 02:40:29;;;;;;;;;;;;;;;18.46;50.18;99939.66;5083216;28;19915;-53
2022/09/29 02:43:12;;;;;;;;;;;;;;;18.44;50.11;99933.66;5084372;28;19914;-57
2022/09/29 02:46:06;;;;;;;;;;;;;;;18.44;50.00;99941.72;5083381;28;19913;-54
2022/09/29 02:48:34;;;;;;;;;;;;;;;18.43;50.09;99936.50;5079878;28;19915;-56
2022/09/29 02:51:06;;;;;;;;;;;;;;;18.43;50.07;99947.28;5084286;28;19963;-56
2022/09/29 02:53:50;;;;;;;;;;;;;;;18.40;50.00;99943.13;5070063;28;19912;-55
2022/09/29 02:56:30;;;;;;;;;;;;;;;18.39;50.26;99941.47;5064315;28;19913;-56
2022/09/29 02:59:09;;;;;;;;;;;;;;;18.38;50.24;99947.84;5064316;28;19916;-55
2022/09/29 03:01:38;;;;;;;;;;;;;;;18.37;49.83;99948.88;5096682;28;19915;-57
2022/09/29 03:04:03;;;;;;;;;;;;;;;18.37;49.88;99948.03;5077625;28;19913;-56
2022/09/29 03:06:28;;;;;;;;;;;;;;;18.35;50.01;99945.53;5044350;28;19916;-57
2022/09/29 03:08:54;;;;;;;;;;;;;;;18.35;49.92;99948.25;5044124;28;19909;-55
2022/09/29 03:11:19;;;;;;;;;;;;;;;18.34;50.14;99954.63;5057815;28;19909;-56
2022/09/29 03:13:44;;;;;;;;;;;;;;;18.34;50.07;99954.63;5064444;28;19909;-57
2022/09/29 03:16:10;;;;;;;;;;;;;;;18.34;49.92;99949.25;5064018;28;19912;-57
2022/09/29 03:18:35;;;;;;;;;;;;;;;18.33;49.99;99949.44;5064377;28;19909;-55
2022/09/29 03:21:01;;;;;;;;;;;;;;;18.33;50.08;99949.44;5064165;28;19944;-55
2022/09/29 03:23:26;;;;;;;;;;;;;;;18.31;50.04;99943.38;5063802;28;19922;-52
2022/09/29 03:25:51;;;;;;;;;;;;;;;18.31;49.76;99944.25;5064251;28;19994;-55
2022/09/29 03:28:16;;;;;;;;;;;;;;;18.30;49.87;99941.72;5063797;28;19909;-57
2022/09/29 03:30:42;;;;;;;;;;;;;;;18.30;49.94;99941.72;5063633;28;19916;-55
2022/09/29 03:33:07;;;;;;;;;;;;;;;18.29;49.96;99948.97;5064181;28;19909;-57
2022/09/29 03:35:32;;;;;;;;;;;;;;;18.28;49.91;99944.63;5066508;28;19915;-53
2022/09/29 03:37:58;;;;;;;;;;;;;;;18.28;49.91;99935.72;5083914;28;19909;-54
2022/09/29 03:40:23;;;;;;;;;;;;;;;18.27;49.89;99940.28;5067941;28;19901;-55
2022/09/29 03:42:48;;;;;;;;;;;;;;;18.27;49.89;99942.97;5067953;28;19909;-56
2022/09/29 03:45:14;;;;;;;;;;;;;;;18.26;49.88;99937.75;5068305;28;19936;-56
2022/09/29 03:47:39;;;;;;;;;;;;;;;18.25;50.13;99944.97;5067885;28;19909;-55
2022/09/29 03:50:04;;;;;;;;;;;;;;;18.24;49.83;99946.00;5067886;28;19920;-54
2022/09/29 03:52:29;;;;;;;;;;;;;;;18.23;49.81;99942.50;5067935;28;19913;-56
2022/09/29 03:54:55;;;;;;;;;;;;;;;18.23;50.00;99945.19;5068109;28;20509;-53
2022/09/29 03:57:20;;;;;;;;;;;;;;;18.22;50.01;99938.16;5067797;28;20301;-56
2022/09/29 03:59:45;;;;;;;;;;;;;;;18.22;49.77;99942.66;5067593;28;19927;-57
2022/09/29 04:02:10;;;;;;;;;;;;;;;18.21;49.96;99941.00;5067458;28;19912;-55
2022/09/29 04:04:35;;;;;;;;;;;;;;;18.20;49.76;99947.41;5067540;28;20020;-57
2022/09/29 04:07:01;;;;;;;;;;;;;;;18.20;49.79;99948.25;5067485;28;19908;-57
2022/09/29 04:09:26;;;;;;;;;;;;;;;18.19;49.97;99951.97;5067150;28;19944;-56
2022/09/29 04:11:51;;;;;;;;;;;;;;;18.20;49.85;99958.16;5067170;28;19909;-55
2022/09/29 04:14:16;;;;;;;;;;;;;;;18.19;49.93;99967.28;5067561;28;19992;-57
2022/09/29 04:16:41;;;;;;;;;;;;;;;18.18;49.83;99965.56;5067122;28;19931;-57
2022/09/29 04:19:06;;;;;;;;;;;;;;;18.17;50.04;99963.91;5066268;28;19963;-58
2022/09/29 04:21:32;;;;;;;;;;;;;;;18.17;49.95;99969.31;5062699;28;19908;-57
2022/09/29 04:23:57;;;;;;;;;;;;;;;18.17;49.98;99969.31;5058619;28;19924;-58
2022/09/29 04:26:22;;;;;;;;;;;;;;;18.15;49.96;99969.50;5066030;28;19920;-58
2022/09/29 04:28:47;;;;;;;;;;;;;;;18.14;49.77;99973.22;5066601;28;19932;-58
2022/09/29 04:31:12;;;;;;;;;;;;;;;18.15;49.93;99979.44;5065969;28;19931;-58
2022/09/29 04:33:38;;;;;;;;;;;;;;;18.14;49.81;99975.91;5066611;28;19915;-58
2022/09/29 04:36:03;;;;;;;;;;;;;;;18.14;49.81;99977.75;5066309;28;19913;-58
2022/09/29 04:38:28;;;;;;;;;;;;;;;18.14;49.90;99978.59;5065744;28;19920;-58
2022/09/29 04:40:54;;;;;;;;;;;;;;;18.14;50.06;99978.59;5066434;28;19909;-58
2022/09/29 04:43:19;;;;;;;;;;;;;;;18.13;49.90;99976.91;5065126;28;19966;-58
2022/09/29 04:45:44;;;;;;;;;;;;;;;18.13;49.78;99984.16;5065654;28;19917;-58
2022/09/29 04:48:09;;;;;;;;;;;;;;;18.12;49.95;99986.00;5065951;28;19962;-58
2022/09/29 04:50:34;;;;;;;;;;;;;;;18.12;49.82;99982.47;5066112;28;19909;-58
2022/09/29 04:53:00;;;;;;;;;;;;;;;18.12;50.08;99986.00;5065777;28;19960;-58
2022/09/29 04:55:25;;;;;;;;;;;;;;;18.12;49.89;99990.56;5066054;28;20022;-57
2022/09/29 04:57:50;;;;;;;;;;;;;;;18.11;50.38;99989.72;5065668;28;19913;-58
2022/09/29 05:00:15;;;;;;;;;;;;;;;18.12;50.29;99995.94;5065752;28;19925;-57
2022/09/29 05:02:41;;;;;;;;;;;;;;;18.11;50.38;99989.72;5065397;28;20011;-57
2022/09/29 05:05:06;;;;;;;;;;;;;;;18.11;50.17;99997.78;5064724;28;20362;-58
2022/09/29 05:07:35;;;;;;;;;;;;;;;18.12;50.43;99999.44;5061582;28;19932;-57
2022/09/29 05:10:00;;;;;;;;;;;;;;;18.12;50.40;99993.25;5065093;28;20019;-58
2022/09/29 05:12:25;;;;;;;;;;;;;;;18.11;50.23;99997.78;5065389;28;19908;-56
2022/09/29 05:14:50;;;;;;;;;;;;;;;18.11;50.34;99997.78;5065859;28;19909;-56
2022/09/29 05:17:16;;;;;;;;;;;;;;;18.11;50.68;100000.47;5065088;28;19919;-57
2022/09/29 05:19:41;;;;;;;;;;;;;;;18.12;50.41;100004.84;5065743;28;19913;-57
2022/09/29 05:22:06;;;;;;;;;;;;;;;18.10;50.42;100006.88;5065503;28;20012;-56
2022/09/29 05:24:31;;;;;;;;;;;;;;;18.11;50.40;100010.41;5064872;28;19935;-57
2022/09/29 05:26:56;;;;;;;;;;;;;;;18.11;50.47;100010.41;5065173;28;19915;-58
2022/09/29 05:29:22;;;;;;;;;;;;;;;18.11;50.70;100021.16;5065004;28;20403;-57
2022/09/29 05:31:47;;;;;;;;;;;;;;;18.11;50.52;100018.47;5065404;28;19931;-57
2022/09/29 05:34:13;;;;;;;;;;;;;;;18.11;50.78;100018.47;5067998;28;19915;-57
2022/09/29 05:36:38;;;;;;;;;;;;;;;18.10;50.55;100024.88;5078854;28;19912;-55
2022/09/29 05:39:03;;;;;;;;;;;;;;;18.09;50.56;100023.19;5064084;28;19912;-57
2022/09/29 05:41:28;;;;;;;;;;;;;;;18.09;50.71;100025.88;5064849;28;20053;-56
2022/09/29 05:43:54;;;;;;;;;;;;;;;18.08;50.69;100027.75;5065129;28;19939;-55
2022/09/29 05:46:19;;;;;;;;;;;;;;;18.07;50.78;100031.47;5064936;28;20504;-57
2022/09/29 05:48:47;;;;;;;;;;;;;;;18.07;50.81;100030.63;5065220;28;19920;-57
2022/09/29 05:51:14;;;;;;;;;;;;;;;18.07;50.79;100030.63;5064945;28;19912;-57
2022/09/29 05:53:39;;;;;;;;;;;;;;;18.06;50.86;100032.47;5064339;28;19955;-55
2022/09/29 05:56:08;;;;;;;;;;;;;;;18.04;50.87;100044.44;5065239;28;19916;-57
2022/09/29 05:58:35;;;;;;;;;;;;;;;18.06;50.88;100039.72;5064347;28;19918;-58
2022/09/29 06:01:03;;;;;;;;;;;;;;;18.05;50.99;100044.25;5064510;28;19920;-57
2022/09/29 06:03:29;;;;;;;;;;;;;;;18.07;51.06;100044.06;5064207;28;19923;-57
2022/09/29 06:05:54;;;;;;;;;;;;;;;17.97;50.86;100036.28;5064768;28;20347;-57
2022/09/29 06:08:19;;;;;;;;;;;;;;;18.05;50.91;100052.31;5063911;28;19916;-57
2022/09/29 06:10:44;;;;;;;;;;;;;;;18.07;51.14;100054.84;5064611;28;19909;-57
2022/09/29 06:13:09;;;;;;;;;;;;;;;18.07;50.90;100052.16;5064200;28;19948;-57
2022/09/29 06:15:35;;;;;;;;;;;;;;;18.08;51.03;100059.19;5062092;28;19999;-57
2022/09/29 06:18:01;;;;;;;;;;;;;;;18.07;50.90;100055.66;5064726;28;20627;-58
2022/09/29 06:20:26;;;;;;;;;;;;;;;18.08;51.06;100056.50;5064665;28;19943;-58
2022/09/29 06:22:54;;;;;;;;;;;;;;;18.07;50.94;100058.34;5064183;28;19931;-58
2022/09/29 06:25:20;;;;;;;;;;;;;;;18.08;50.83;100065.41;5064687;28;19913;-58
2022/09/29 06:27:45;;;;;;;;;;;;;;;18.08;50.79;100069.94;5063119;28;19913;-58
2022/09/29 06:30:12;;;;;;;;;;;;;;;18.08;50.69;100057.34;5062084;28;20431;-58
2022/09/29 06:32:37;;;;;;;;;;;;;;;18.08;50.90;100065.41;5063458;28;19979;-58
2022/09/29 06:37:46;;;;;;;;;;;;;;;18.09;50.90;100061.69;5061781;28;19967;-57
2022/09/29 06:40:11;;;;;;;;;;;;;;;18.11;51.03;100077.66;5063502;28;20023;-59
2022/09/29 06:42:37;;;;;;;;;;;;;;;18.10;51.00;100071.44;5062094;28;19912;-59
2022/09/29 06:45:02;;;;;;;;;;;;;;;18.11;51.07;100075.81;5063641;28;19938;-57
2022/09/29 06:47:28;;;;;;;;;;;;;;;18.12;51.07;100074.78;5063607;28;19913;-59
2022/09/29 06:49:53;;;;;;;;;;;;;;;18.14;50.94;100080.00;5064068;28;19909;-57
2022/09/29 06:52:18;;;;;;;;;;;;;;;18.14;51.02;100080.81;5063690;28;19913;-57
2022/09/29 06:54:43;;;;;;;;;;;;;;;18.15;50.91;100077.09;5063059;28;19908;-54
2022/09/29 06:57:08;;;;;;;;;;;;;;;18.16;50.90;100084.16;5063379;28;19912;-58
2022/09/29 06:59:34;;;;;;;;;;;;;;;18.17;50.93;100093.06;5063005;28;19917;-57
2022/09/29 07:01:59;;;;;;;;;;;;;;;18.19;51.03;100082.97;5063230;28;19915;-58
2022/09/29 07:04:24;;;;;;;;;;;;;;;18.20;51.13;100085.47;5063289;28;19927;-58
2022/09/29 07:06:49;;;;;;;;;;;;;;;18.21;50.92;100080.91;5063893;28;20262;-57
2022/09/29 07:09:15;;;;;;;;;;;;;;;18.21;50.81;100084.44;5062262;28;19912;-58
2022/09/29 07:11:45;;;;;;;;;;;;;;;18.22;50.68;100090.66;5063688;28;19915;-55
2022/09/29 07:14:10;;;;;;;;;;;;;;;18.23;50.82;100095.03;5064161;28;19979;-58
2022/09/29 07:16:35;;;;;;;;;;;;;;;18.24;50.65;100092.16;5063668;28;19940;-58
2022/09/29 07:19:00;;;;;;;;;;;;;;;18.25;50.42;100098.34;5063778;28;19920;-58
2022/09/29 07:21:26;;;;;;;;;;;;;;;18.26;50.52;100100.03;5063486;28;19995;-57
2022/09/29 07:23:51;;;;;;;;;;;;;;;18.27;50.79;100100.88;5063395;28;19913;-58
2022/09/29 07:26:16;;;;;;;;;;;;;;;18.29;50.47;100114.97;5063844;28;20285;-57
2022/09/29 07:28:41;;;;;;;;;;;;;;;18.30;50.26;100106.72;5063565;28;19909;-57
2022/09/29 07:31:08;;;;;;;;;;;;;;;18.31;50.44;100121.84;5063340;28;19928;-57
2022/09/29 07:33:33;;;;;;;;;;;;;;;18.33;50.22;100113.59;5063860;28;19912;-58
2022/09/29 07:35:59;;;;;;;;;;;;;;;18.34;50.19;100116.09;5064472;28;19999;-58
2022/09/29 07:38:28;;;;;;;;;;;;;;;18.35;50.07;100117.78;5083384;28;19908;-58
2022/09/29 07:40:53;;;;;;;;;;;;;;;18.37;50.27;100120.28;5063467;28;19944;-58
2022/09/29 07:43:18;;;;;;;;;;;;;;;18.37;50.02;100126.50;5063394;28;19916;-57
2022/09/29 07:45:45;;;;;;;;;;;;;;;18.39;50.05;100124.47;5063584;28;19947;-57
2022/09/29 07:48:10;;;;;;;;;;;;;;;18.40;50.12;100130.69;5063359;28;19940;-57
2022/09/29 07:50:35;;;;;;;;;;;;;;;18.41;50.15;100125.09;5063046;28;19919;-58
2022/09/29 07:53:01;;;;;;;;;;;;;;;18.42;50.00;100129.47;5063142;28;19917;-57
2022/09/29 07:55:26;;;;;;;;;;;;;;;18.45;50.12;100128.25;5063421;28;19916;-58
2022/09/29 07:57:51;;;;;;;;;;;;;;;18.47;50.08;100145.06;5063119;28;19947;-58
2022/09/29 08:00:16;;;;;;;;;;;;;;;18.48;50.12;100134.13;5063175;28;20007;-57
2022/09/29 08:02:42;;;;;;;;;;;;;;;18.51;50.31;100137.44;5063184;28;19913;-58
2022/09/29 08:05:07;;;;;;;;;;;;;;;18.53;50.35;100152.41;5076281;28;19912;-57
2022/09/29 08:07:33;;;;;;;;;;;;;;;18.56;50.60;100148.50;5083490;28;19925;-58
2022/09/29 08:09:58;;;;;;;;;;;;;;;18.58;50.33;100152.69;5062918;28;19919;-58
2022/09/29 08:12:23;;;;;;;;;;;;;;;18.59;50.40;100154.34;5063192;28;19909;-58
2022/09/29 08:14:49;;;;;;;;;;;;;;;18.60;50.50;100158.72;5063632;28;19908;-58
2022/09/29 08:17:14;;;;;;;;;;;;;;;18.62;50.48;100161.22;5063103;28;19909;-58
2022/09/29 08:19:39;;;;;;;;;;;;;;;18.64;50.67;100169.94;5063032;28;19936;-58
2022/09/29 08:22:05;;;;;;;;;;;;;;;18.65;50.63;100172.47;5066164;28;20667;-58
2022/09/29 08:24:30;;;;;;;;;;;;;;;18.67;50.45;100174.97;5066250;28;19983;-58
2022/09/29 08:26:56;;;;;;;;;;;;;;;18.67;50.19;100167.72;5065445;28;19916;-58
2022/09/29 08:29:21;;;;;;;;;;;;;;;18.68;50.05;100180.16;5066744;28;19913;-57
2022/09/29 08:31:47;;;;;;;;;;;;;;;18.69;50.30;100181.00;5066568;28;19933;-57
2022/09/29 08:34:13;;;;;;;;;;;;;;;18.70;49.81;100188.09;5066889;28;19972;-57
2022/09/29 08:36:38;;;;;;;;;;;;;;;18.72;50.18;100192.28;5073152;28;19908;-58
2022/09/29 08:39:03;;;;;;;;;;;;;;;18.71;50.07;100196.00;5066374;28;19912;-57
2022/09/29 08:41:47;;;;;;;;;;;;;;;18.75;49.95;100195.63;5066463;28;19912;-58
2022/09/29 08:44:31;;;;;;;;;;;;;;;18.79;49.81;100195.06;5066817;28;19913;-58
2022/09/29 08:46:57;;;;;;;;;;;;;;;18.84;49.85;100194.50;5066611;28;19912;-56
2022/09/29 08:49:30;;;;;;;;;;;;;;;18.88;49.38;100199.34;5065307;28;19912;-57
2022/09/29 08:51:57;;;;;;;;;;;;;;;18.92;49.50;100199.81;5065203;28;19908;-59
2022/09/29 08:54:32;;;;;;;;;;;;;;;18.94;49.49;100197.75;5063957;28;19913;-57
2022/09/29 08:56:58;;;;;;;;;;;;;;;18.96;49.25;100199.25;5063287;28;19909;-57
2022/09/29 08:59:24;;;;;;;;;;;;;;;18.98;49.38;100213.34;5064666;28;19923;-57
2022/09/29 09:01:55;;;;;;;;;;;;;;;19.00;49.23;100198.88;5064703;28;20369;-57
2022/09/29 09:04:39;;;;;;;;;;;;;;;19.01;49.42;100209.47;5066218;28;19920;-57
2022/09/29 09:07:07;;;;;;;;;;;;;;;19.04;49.13;100205.56;5066095;28;19924;-58
2022/09/29 09:09:32;;;;;;;;;;;;;;;19.06;48.79;100208.91;5097588;28;19912;-58
2022/09/29 09:12:16;;;;;;;;;;;;;;;19.07;49.04;100214.09;5065622;28;20977;-56
2022/09/29 09:14:57;;;;;;;;;;;;;;;19.11;49.02;100214.56;5066222;28;19920;-58
2022/09/29 09:17:31;;;;;;;;;;;;;;;19.14;48.81;100216.91;5065733;28;20472;-57
2022/09/29 09:19:56;;;;;;;;;;;;;;;19.16;49.04;100223.78;5065782;28;19919;-58
2022/09/29 09:22:23;;;;;;;;;;;;;;;19.19;48.97;100225.25;5065929;28;19909;-57
2022/09/29 09:25:03;;;;;;;;;;;;;;;19.22;48.72;100224.88;5065218;28;19912;-58
2022/09/29 09:27:32;;;;;;;;;;;;;;;19.26;48.74;100226.19;5065141;28;19919;-58
2022/09/29 09:30:17;;;;;;;;;;;;;;;19.30;48.71;100230.16;5065708;28;19921;-58
2022/09/29 09:32:52;;;;;;;;;;;;;;;19.33;48.58;100220.88;5064825;28;19909;-58
2022/09/29 09:35:23;;;;;;;;;;;;;;;19.35;48.48;100227.75;5065709;28;19915;-57
2022/09/29 09:37:49;;;;;;;;;;;;;;;19.37;48.60;100225.72;5069754;28;19920;-56
2022/09/29 09:40:14;;;;;;;;;;;;;;;19.37;48.41;100228.41;5064280;28;19905;-58
2022/09/29 09:42:41;;;;;;;;;;;;;;;19.37;48.22;100224.84;5065282;28;19950;-58
2022/09/29 09:45:06;;;;;;;;;;;;;;;19.12;48.42;100182.06;5064513;28;19912;-57
2022/09/29 09:47:33;;;;;;;;;;;;;;;19.35;48.64;100226.91;5065367;28;19972;-58
2022/09/29 09:50:14;;;;;;;;;;;;;;;19.34;48.68;100228.78;5064008;28;19916;-58
2022/09/29 09:52:39;;;;;;;;;;;;;;;19.34;48.82;100230.63;5065402;28;19909;-57
2022/09/29 09:55:05;;;;;;;;;;;;;;;19.34;48.80;100227.94;5064609;28;19912;-57
2022/09/29 09:57:43;;;;;;;;;;;;;;;19.33;49.02;100229.81;5064778;28;19916;-56
2022/09/29 10:00:12;;;;;;;;;;;;;;;19.33;49.15;100226.28;5064965;28;19924;-56
2022/09/29 10:02:41;;;;;;;;;;;;;;;19.33;49.10;100229.81;5097018;28;19912;-58
2022/09/29 10:05:09;;;;;;;;;;;;;;;19.33;49.09;100223.59;5065142;28;19919;-58
2022/09/29 10:07:34;;;;;;;;;;;;;;;19.34;49.55;100233.34;5097316;28;19916;-58
2022/09/29 10:10:00;;;;;;;;;;;;;;;19.33;49.47;100224.41;5064213;28;19912;-58
2022/09/29 10:12:25;;;;;;;;;;;;;;;19.34;49.84;100236.03;5057454;28;20469;-59
2022/09/29 10:14:56;;;;;;;;;;;;;;;19.34;49.64;100231.47;5056819;28;19944;-61
2022/09/29 10:17:22;;;;;;;;;;;;;;;19.38;49.59;100238.16;5062559;28;20016;-60
2022/09/29 10:19:54;;;;;;;;;;;;;;;19.39;49.51;100236.28;5096587;28;19908;-60
2022/09/29 10:22:19;;;;;;;;;;;;;;;19.39;49.49;100236.28;5058079;28;19956;-56
2022/09/29 10:24:44;;;;;;;;;;;;;;;19.41;49.68;100231.53;5048205;28;19920;-53
2022/09/29 10:27:10;;;;;;;;;;;;;;;19.42;49.62;100238.63;5062494;28;19913;-56
2022/09/29 10:29:43;;;;;;;;;;;;;;;19.43;49.45;100234.91;5063811;28;19940;-56
2022/09/29 10:32:15;;;;;;;;;;;;;;;19.43;49.61;100234.91;5058930;28;19948;-58
2022/09/29 10:34:41;;;;;;;;;;;;;;;19.43;49.46;100232.19;5064057;28;19975;-57
2022/09/29 10:37:25;;;;;;;;;;;;;;;19.44;49.51;100234.69;5067928;28;19948;-60
2022/09/29 10:39:50;;;;;;;;;;;;;;;19.46;49.27;100234.53;5064015;28;19955;-60
2022/09/29 10:42:26;;;;;;;;;;;;;;;19.48;49.45;100232.47;5062461;28;19909;-60
2022/09/29 10:45:10;;;;;;;;;;;;;;;19.49;49.44;100231.44;5048489;28;19923;-58
2022/09/29 10:47:36;;;;;;;;;;;;;;;19.51;49.37;100232.09;5063992;28;19919;-57
2022/09/29 10:50:11;;;;;;;;;;;;;;;19.53;49.61;100231.91;5069930;28;19920;-58
2022/09/29 10:52:36;;;;;;;;;;;;;;;19.55;49.70;100236.09;5095943;28;19909;-57
2022/09/29 10:55:02;;;;;;;;;;;;;;;19.57;50.00;100234.03;5063766;28;19919;-57
2022/09/29 10:57:29;;;;;;;;;;;;;;;19.59;49.95;100228.47;5062153;28;19912;-58
2022/09/29 10:59:54;;;;;;;;;;;;;;;19.60;50.04;100228.25;5063563;28;20295;-57
2022/09/29 11:02:21;;;;;;;;;;;;;;;19.64;50.17;100236.84;5062613;28;19956;-57
2022/09/29 11:04:46;;;;;;;;;;;;;;;19.65;50.17;100238.50;5062501;28;19919;-57
2022/09/29 11:07:12;;;;;;;;;;;;;;;19.68;49.99;100238.13;5063741;28;19940;-58
2022/09/29 11:09:41;;;;;;;;;;;;;;;19.68;50.17;100232.75;5061844;28;19936;-55
2022/09/29 11:12:26;;;;;;;;;;;;;;;19.71;50.38;100235.06;5057671;28;19908;-64
2022/09/29 11:14:51;;;;;;;;;;;;;;;19.71;50.40;100238.59;5047692;28;19919;-58
2022/09/29 11:17:19;;;;;;;;;;;;;;;19.76;50.43;100239.88;5062883;28;19909;-58
2022/09/29 11:19:44;;;;;;;;;;;;;;;19.77;50.25;100236.16;5060401;28;19912;-58
2022/09/29 11:22:29;;;;;;;;;;;;;;;19.80;50.60;100236.63;5062799;28;19908;-58
2022/09/29 11:25:12;;;;;;;;;;;;;;;19.83;50.17;100241.59;5061634;28;19923;-58
2022/09/29 11:27:47;;;;;;;;;;;;;;;19.85;50.40;100239.56;5062172;28;19909;-58
2022/09/29 11:30:16;;;;;;;;;;;;;;;19.88;50.48;100235.63;5062537;28;19927;-59
2022/09/29 11:32:51;;;;;;;;;;;;;;;19.89;50.36;100231.94;5078498;28;19920;-57
2022/09/29 11:35:34;;;;;;;;;;;;;;;19.93;50.81;100246.72;5063474;28;19916;-58
2022/09/29 11:38:20;;;;;;;;;;;;;;;19.95;50.48;100248.19;5066005;28;19916;-56
2022/09/29 11:40:52;;;;;;;;;;;;;;;19.98;50.51;100241.56;5045013;28;20337;-59
2022/09/29 11:43:36;;;;;;;;;;;;;;;19.99;50.47;100243.25;5062155;28;19963;-59
2022/09/29 11:46:22;;;;;;;;;;;;;;;20.03;50.42;100241.00;5057648;28;19912;-59
2022/09/29 11:48:52;;;;;;;;;;;;;;;20.05;50.25;100249.72;5038167;28;20408;-58
2022/09/29 11:51:21;;;;;;;;;;;;;;;20.06;50.13;100248.72;5058229;28;19920;-59
2022/09/29 11:53:50;;;;;;;;;;;;;;;20.09;50.40;100249.16;5087176;28;19919;-58
2022/09/29 11:56:24;;;;;;;;;;;;;;;20.10;50.38;100247.31;5065097;28;19909;-56
2022/09/29 11:58:52;;;;;;;;;;;;;;;20.12;50.15;100248.75;5049470;28;19908;-59
2022/09/29 12:01:26;;;;;;;;;;;;;;;20.14;50.08;100254.81;5062268;28;19968;-53
2022/09/29 12:04:10;;;;;;;;;;;;;;;20.16;50.14;100255.44;5061921;28;19920;-52
2022/09/29 12:06:51;;;;;;;;;;;;;;;20.20;50.07;100254.03;5067125;28;19944;-60
2022/09/29 12:09:26;;;;;;;;;;;;;;;20.24;50.23;100254.50;5066575;28;19912;-60
2022/09/29 12:12:10;;;;;;;;;;;;;;;20.27;50.18;100254.13;5065820;28;19913;-53
2022/09/29 12:14:52;;;;;;;;;;;;;;;20.31;49.85;100252.69;5064067;28;19952;-60
2022/09/29 12:17:19;;;;;;;;;;;;;;;20.10;50.01;100215.75;5067077;28;19919;-59
2022/09/29 12:19:55;;;;;;;;;;;;;;;20.37;49.93;100257.31;5065284;28;19909;-60
2022/09/29 12:22:20;;;;;;;;;;;;;;;20.40;49.96;100259.63;5065312;28;19980;-56
2022/09/29 12:24:47;;;;;;;;;;;;;;;20.41;49.93;100261.28;5065473;28;19919;-59
2022/09/29 12:27:18;;;;;;;;;;;;;;;20.43;49.89;100258.38;5065029;28;19915;-59
2022/09/29 12:29:53;;;;;;;;;;;;;;;20.46;49.77;100249.91;5066637;28;19908;-60
2022/09/29 12:32:18;;;;;;;;;;;;;;;20.48;49.80;100247.91;5063878;28;20472;-55
2022/09/29 12:34:45;;;;;;;;;;;;;;;20.50;49.71;100256.63;5066713;28;19909;-56
2022/09/29 12:37:19;;;;;;;;;;;;;;;20.53;49.96;100250.00;5068143;28;19972;-55
2022/09/29 12:39:51;;;;;;;;;;;;;;;20.55;49.72;100250.63;5066063;28;19916;-54
2022/09/29 12:42:20;;;;;;;;;;;;;;;20.58;49.70;100250.25;5064948;28;20483;-56
2022/09/29 12:44:45;;;;;;;;;;;;;;;20.59;49.48;100251.91;5065583;28;19975;-54
2022/09/29 12:47:29;;;;;;;;;;;;;;;20.62;49.67;100254.22;5066619;28;19947;-54
2022/09/29 12:50:30;;;;;;;;;;;;;;;20.64;49.71;100260.25;5066284;28;19913;-57